Terminal Aerodrome Forecast
Issued by NWS Jacksonville, FL

Home | Current Version | Previous Version | Text Only | Print | Product List | Glossary On
Versions: 1 2 3 4 5 6 7 8 9 10 11 12 13 14 15 16 17 18 19 20 21 22 23 24 25 26 27 28 29 30 31 32 33 34 35 36
000
FTUS42 KJAX 011721
TAFSSI
TAF
KSSI 011721Z 0118/0218 11005KT P6SM VCTS SCT015CB BKN040
      TEMPO 0118/0119 2SM TSRA BR BKN015CB
     FM012200 13008KT P6SM VCSH SCT025 BKN040
     FM020100 VRB04KT P6SM SCT040 BKN150
     FM021500 10006KT P6SM VCSH SCT025 BKN050=

USA.gov is the U.S. government's official web portal to all federal, state and local government web resources and services.